UAE887 UUEE-OMDB
Flight info
| Callsign | UAE887 |
|---|---|
| Flight time | 4h 32m |
| Altitude | 39000 |
| Route | EMGAS3J EMGAS T828 NIBIM M54 GUSLI/N0480F390 M54 ADILA N82 ADANO N77 MAGRI R654 SAV/N0492F410 R654 PEKAM P574 KASOL A418 KIS B547 SIR L223 VUTEB |
| Aircraft | A388/J-SADE2E3FGHIJ3J4J5M1RWXY/LB1D1 |
Departure
| Time | 2026-04-26 08:55 |
|---|---|
| Airport | Sheremetyevo International Airport (UUEE) |
Arrival
| Time | 2026-04-26 13:27 |
|---|---|
| Airport | Dubai International Airport (OMDB) |
| Time | Latitude | Longitude | Altitude | Speed | Heading |
|---|---|---|---|---|---|
| 2026-04-26 08:35 | 55.97838 | 37.41951 | 644 ft | 0 kts | 279° |
| 2026-04-26 08:45 | 55.97838 | 37.41953 | 645 ft | 2 kts | 279° |
| 2026-04-26 08:45 | 55.97835 | 37.41982 | 645 ft | 2 kts | 279° |
| 2026-04-26 08:45 | 55.97832 | 37.42010 | 650 ft | 2 kts | 279° |
| 2026-04-26 08:45 | 55.97833 | 37.42039 | 651 ft | 2 kts | 252° |
| 2026-04-26 08:46 | 55.97847 | 37.42055 | 647 ft | 2 kts | 190° |
| 2026-04-26 08:46 | 55.97863 | 37.42054 | 648 ft | 2 kts | 172° |
| 2026-04-26 08:46 | 55.97864 | 37.42054 | 645 ft | 0 kts | 172° |
| 2026-04-26 08:49 | 55.97860 | 37.42055 | 649 ft | 2 kts | 172° |
| 2026-04-26 08:49 | 55.97828 | 37.42063 | 647 ft | 7 kts | 172° |
| 2026-04-26 08:50 | 55.97774 | 37.42088 | 648 ft | 10 kts | 162° |
| 2026-04-26 08:50 | 55.97710 | 37.42136 | 649 ft | 9 kts | 130° |
| 2026-04-26 08:50 | 55.97697 | 37.42246 | 645 ft | 10 kts | 77° |
| 2026-04-26 08:50 | 55.97716 | 37.42402 | 646 ft | 15 kts | 78° |
| 2026-04-26 08:51 | 55.97787 | 37.42864 | 649 ft | 22 kts | 75° |
| 2026-04-26 08:51 | 55.97821 | 37.43096 | 648 ft | 10 kts | 75° |
| 2026-04-26 08:51 | 55.97843 | 37.43249 | 648 ft | 15 kts | 75° |
| 2026-04-26 08:52 | 55.97874 | 37.43456 | 646 ft | 19 kts | 75° |
| 2026-04-26 08:52 | 55.97911 | 37.43707 | 649 ft | 22 kts | 75° |
| 2026-04-26 08:52 | 55.97945 | 37.43939 | 648 ft | 0 kts | 83° |
| 2026-04-26 08:52 | 55.97944 | 37.43978 | 647 ft | 7 kts | 113° |
| 2026-04-26 08:53 | 55.97903 | 37.44042 | 652 ft | 9 kts | 160° |
| 2026-04-26 08:53 | 55.97839 | 37.44077 | 647 ft | 11 kts | 166° |
| 2026-04-26 08:53 | 55.97728 | 37.44127 | 645 ft | 19 kts | 166° |
| 2026-04-26 08:53 | 55.97616 | 37.44178 | 646 ft | 9 kts | 165° |
| 2026-04-26 08:54 | 55.97561 | 37.44173 | 647 ft | 8 kts | 208° |
| 2026-04-26 08:54 | 55.97531 | 37.44100 | 648 ft | 8 kts | 252° |
| 2026-04-26 08:54 | 55.97490 | 37.43802 | 644 ft | 60 kts | 255° |
| 2026-04-26 08:54 | 55.97317 | 37.42664 | 647 ft | 125 kts | 255° |
| 2026-04-26 08:55 | 55.97064 | 37.40929 | 753 ft | 154 kts | 255° |
| 2026-04-26 08:55 | 55.96793 | 37.39089 | 1324 ft | 152 kts | 253° |
| 2026-04-26 08:55 | 55.96477 | 37.37240 | 1766 ft | 157 kts | 246° |
| 2026-04-26 08:55 | 55.95972 | 37.35531 | 2272 ft | 158 kts | 238° |
| 2026-04-26 08:56 | 55.95345 | 37.33835 | 2643 ft | 175 kts | 236° |
| 2026-04-26 08:56 | 55.94560 | 37.31925 | 3073 ft | 198 kts | 226° |
| 2026-04-26 08:56 | 55.93827 | 37.30551 | 3522 ft | 209 kts | 231° |
| 2026-04-26 08:56 | 55.93265 | 37.29167 | 4075 ft | 211 kts | 236° |
| 2026-04-26 08:57 | 55.92488 | 37.26986 | 5000 ft | 211 kts | 238° |
| 2026-04-26 08:57 | 55.91687 | 37.24732 | 5871 ft | 215 kts | 237° |
| 2026-04-26 08:57 | 55.90855 | 37.22487 | 6649 ft | 220 kts | 236° |
| 2026-04-26 08:57 | 55.89990 | 37.20228 | 6957 ft | 222 kts | 235° |
| 2026-04-26 08:58 | 55.89116 | 37.17945 | 6998 ft | 222 kts | 238° |
| 2026-04-26 08:58 | 55.88447 | 37.15467 | 7019 ft | 225 kts | 246° |
| 2026-04-26 08:58 | 55.87818 | 37.12780 | 7016 ft | 248 kts | 246° |
| 2026-04-26 08:58 | 55.87126 | 37.09909 | 7011 ft | 255 kts | 245° |
| 2026-04-26 08:59 | 55.86564 | 37.06921 | 7051 ft | 258 kts | 259° |
| 2026-04-26 08:59 | 55.86634 | 37.03704 | 7405 ft | 265 kts | 280° |
| 2026-04-26 08:59 | 55.87186 | 37.00532 | 7885 ft | 268 kts | 283° |
| 2026-04-26 08:59 | 55.87722 | 36.97343 | 7999 ft | 269 kts | 282° |
| 2026-04-26 09:00 | 55.88241 | 36.94143 | 8010 ft | 268 kts | 282° |
| 2026-04-26 09:00 | 55.88758 | 36.90937 | 8005 ft | 267 kts | 282° |
| 2026-04-26 09:00 | 55.89273 | 36.87757 | 7997 ft | 266 kts | 282° |
| 2026-04-26 09:00 | 55.89768 | 36.84706 | 8000 ft | 267 kts | 282° |
| 2026-04-26 09:01 | 55.90285 | 36.81520 | 8003 ft | 268 kts | 282° |
| 2026-04-26 09:01 | 55.90793 | 36.78355 | 8012 ft | 270 kts | 280° |
| 2026-04-26 09:01 | 55.90986 | 36.75008 | 8191 ft | 266 kts | 264° |
| 2026-04-26 09:01 | 55.90665 | 36.71789 | 8637 ft | 265 kts | 252° |
| 2026-04-26 09:02 | 55.90192 | 36.68641 | 9477 ft | 266 kts | 253° |
| 2026-04-26 09:02 | 55.89742 | 36.65431 | 10263 ft | 268 kts | 253° |
| 2026-04-26 09:02 | 55.89296 | 36.62196 | 11008 ft | 271 kts | 253° |
| 2026-04-26 09:02 | 55.88844 | 36.58936 | 11808 ft | 273 kts | 253° |
| 2026-04-26 09:03 | 55.88382 | 36.55627 | 12278 ft | 276 kts | 253° |
| 2026-04-26 09:03 | 55.87908 | 36.52310 | 12403 ft | 276 kts | 250° |
| 2026-04-26 09:03 | 55.87017 | 36.49317 | 12422 ft | 273 kts | 228° |
| 2026-04-26 09:03 | 55.85532 | 36.47263 | 12420 ft | 273 kts | 207° |
| 2026-04-26 09:04 | 55.83696 | 36.46418 | 12428 ft | 276 kts | 185° |
| 2026-04-26 09:04 | 55.81772 | 36.46797 | 12423 ft | 281 kts | 174° |
| 2026-04-26 09:04 | 55.79839 | 36.47376 | 12417 ft | 280 kts | 175° |
| 2026-04-26 09:04 | 55.77913 | 36.47927 | 12417 ft | 281 kts | 173° |
| 2026-04-26 09:05 | 55.76019 | 36.48891 | 12497 ft | 287 kts | 162° |
| 2026-04-26 09:05 | 55.74224 | 36.50538 | 12902 ft | 293 kts | 152° |
| 2026-04-26 09:05 | 55.72507 | 36.52483 | 13641 ft | 293 kts | 153° |
| 2026-04-26 09:05 | 55.70757 | 36.54396 | 14184 ft | 296 kts | 154° |
| 2026-04-26 09:06 | 55.68993 | 36.56298 | 14379 ft | 297 kts | 154° |
| 2026-04-26 09:06 | 55.67224 | 36.58202 | 14430 ft | 299 kts | 154° |
| 2026-04-26 09:06 | 55.65497 | 36.60063 | 14420 ft | 298 kts | 154° |
| 2026-04-26 09:06 | 55.63755 | 36.61946 | 14425 ft | 297 kts | 154° |
| 2026-04-26 09:07 | 55.62023 | 36.63955 | 14421 ft | 300 kts | 147° |
| 2026-04-26 09:07 | 55.60532 | 36.66593 | 14425 ft | 309 kts | 134° |
| 2026-04-26 09:07 | 55.59356 | 36.69826 | 14428 ft | 316 kts | 126° |
| 2026-04-26 09:07 | 55.58192 | 36.73267 | 14426 ft | 334 kts | 127° |
| 2026-04-26 09:08 | 55.56976 | 36.76796 | 14424 ft | 338 kts | 127° |
| 2026-04-26 09:08 | 55.55747 | 36.80349 | 14418 ft | 338 kts | 127° |
| 2026-04-26 09:08 | 55.54519 | 36.83890 | 14417 ft | 337 kts | 127° |
| 2026-04-26 09:08 | 55.53293 | 36.87420 | 14413 ft | 337 kts | 127° |
| 2026-04-26 09:09 | 55.52063 | 36.90950 | 14417 ft | 338 kts | 127° |
| 2026-04-26 09:09 | 55.50832 | 36.94478 | 14423 ft | 336 kts | 127° |
| 2026-04-26 09:09 | 55.49597 | 36.98014 | 14412 ft | 340 kts | 128° |
| 2026-04-26 09:09 | 55.48363 | 37.01541 | 14412 ft | 337 kts | 127° |
| 2026-04-26 09:10 | 55.47130 | 37.05062 | 14417 ft | 337 kts | 128° |
| 2026-04-26 09:10 | 55.45892 | 37.08589 | 14416 ft | 338 kts | 128° |
| 2026-04-26 09:10 | 55.44618 | 37.12074 | 14412 ft | 336 kts | 133° |
| 2026-04-26 09:10 | 55.43056 | 37.14976 | 14431 ft | 328 kts | 146° |
| 2026-04-26 09:11 | 55.41183 | 37.17176 | 14424 ft | 321 kts | 157° |
| 2026-04-26 09:11 | 55.39225 | 37.19062 | 14421 ft | 321 kts | 156° |
| 2026-04-26 09:11 | 55.37276 | 37.20986 | 14428 ft | 321 kts | 156° |
| 2026-04-26 09:11 | 55.35331 | 37.22925 | 14427 ft | 321 kts | 156° |
| 2026-04-26 09:12 | 55.33376 | 37.24874 | 14421 ft | 322 kts | 156° |
| 2026-04-26 09:12 | 55.31431 | 37.26808 | 14425 ft | 322 kts | 156° |
| 2026-04-26 09:12 | 55.29482 | 37.28742 | 14417 ft | 322 kts | 156° |
| 2026-04-26 09:12 | 55.27531 | 37.30674 | 14418 ft | 322 kts | 156° |
| 2026-04-26 09:13 | 55.25579 | 37.32606 | 14428 ft | 322 kts | 156° |
| 2026-04-26 09:13 | 55.23625 | 37.34535 | 14423 ft | 322 kts | 156° |
| 2026-04-26 09:13 | 55.21691 | 37.36443 | 14430 ft | 322 kts | 156° |
| 2026-04-26 09:13 | 55.19733 | 37.38390 | 14421 ft | 323 kts | 156° |
| 2026-04-26 09:14 | 55.17786 | 37.40356 | 14427 ft | 323 kts | 156° |
| 2026-04-26 09:14 | 55.15837 | 37.42329 | 14420 ft | 323 kts | 156° |
| 2026-04-26 09:14 | 55.13887 | 37.44299 | 14423 ft | 323 kts | 156° |
| 2026-04-26 09:14 | 55.11937 | 37.46261 | 14426 ft | 323 kts | 156° |
| 2026-04-26 09:15 | 55.09989 | 37.48218 | 14423 ft | 323 kts | 156° |
| 2026-04-26 09:15 | 55.08043 | 37.50169 | 14426 ft | 323 kts | 156° |
| 2026-04-26 09:15 | 55.06094 | 37.52121 | 14428 ft | 323 kts | 156° |
| 2026-04-26 09:15 | 55.04113 | 37.53928 | 14450 ft | 321 kts | 161° |
| 2026-04-26 09:16 | 55.02082 | 37.55600 | 14715 ft | 323 kts | 160° |
| 2026-04-26 09:16 | 55.00072 | 37.57271 | 15384 ft | 324 kts | 161° |
| 2026-04-26 09:16 | 54.98034 | 37.58970 | 16016 ft | 326 kts | 161° |
| 2026-04-26 09:16 | 54.95974 | 37.60685 | 16615 ft | 330 kts | 161° |
| 2026-04-26 09:17 | 54.93896 | 37.62413 | 17212 ft | 333 kts | 161° |
| 2026-04-26 09:17 | 54.91761 | 37.63981 | 17765 ft | 334 kts | 165° |
| 2026-04-26 09:17 | 54.89594 | 37.65511 | 18336 ft | 336 kts | 165° |
| 2026-04-26 09:17 | 54.87425 | 37.67050 | 18913 ft | 339 kts | 165° |
| 2026-04-26 09:18 | 54.85204 | 37.68626 | 19466 ft | 341 kts | 166° |
| 2026-04-26 09:18 | 54.83026 | 37.70171 | 20022 ft | 343 kts | 166° |
| 2026-04-26 09:18 | 54.80827 | 37.71726 | 20353 ft | 347 kts | 166° |
| 2026-04-26 09:18 | 54.78588 | 37.73309 | 20438 ft | 348 kts | 166° |
| 2026-04-26 09:19 | 54.76352 | 37.74892 | 20439 ft | 347 kts | 166° |
| 2026-04-26 09:19 | 54.74124 | 37.76468 | 20438 ft | 346 kts | 166° |
| 2026-04-26 09:19 | 54.71896 | 37.78040 | 20439 ft | 346 kts | 166° |
| 2026-04-26 09:19 | 54.69675 | 37.79603 | 20441 ft | 346 kts | 166° |
| 2026-04-26 09:20 | 54.67430 | 37.81151 | 20440 ft | 344 kts | 169° |
| 2026-04-26 09:20 | 54.65141 | 37.82255 | 20578 ft | 339 kts | 176° |
| 2026-04-26 09:20 | 54.62823 | 37.82797 | 21084 ft | 333 kts | 184° |
| 2026-04-26 09:20 | 54.60507 | 37.82934 | 21529 ft | 336 kts | 186° |
| 2026-04-26 09:21 | 54.58120 | 37.83056 | 21639 ft | 349 kts | 185° |
| 2026-04-26 09:21 | 54.55647 | 37.83202 | 21798 ft | 360 kts | 185° |
| 2026-04-26 09:21 | 54.53134 | 37.83367 | 22273 ft | 362 kts | 185° |
| 2026-04-26 09:21 | 54.50606 | 37.83539 | 22789 ft | 363 kts | 185° |
| 2026-04-26 09:22 | 54.48068 | 37.83827 | 23204 ft | 370 kts | 180° |
| 2026-04-26 09:22 | 54.45544 | 37.84741 | 23604 ft | 381 kts | 172° |
| 2026-04-26 09:22 | 54.43031 | 37.86385 | 23978 ft | 393 kts | 163° |
| 2026-04-26 09:22 | 54.40601 | 37.88648 | 24375 ft | 399 kts | 160° |
| 2026-04-26 09:23 | 54.38161 | 37.90977 | 24743 ft | 402 kts | 160° |
| 2026-04-26 09:23 | 54.35699 | 37.93298 | 25167 ft | 404 kts | 161° |
| 2026-04-26 09:23 | 54.33223 | 37.95618 | 25598 ft | 407 kts | 161° |
| 2026-04-26 09:23 | 54.30735 | 37.97939 | 26035 ft | 409 kts | 161° |
| 2026-04-26 09:24 | 54.28223 | 38.00278 | 26498 ft | 412 kts | 161° |
| 2026-04-26 09:24 | 54.25703 | 38.02622 | 26969 ft | 414 kts | 161° |
| 2026-04-26 09:24 | 54.23161 | 38.04984 | 27430 ft | 417 kts | 161° |
| 2026-04-26 09:24 | 54.20597 | 38.07362 | 27908 ft | 420 kts | 161° |
| 2026-04-26 09:25 | 54.18022 | 38.09748 | 28373 ft | 423 kts | 161° |
| 2026-04-26 09:25 | 54.15425 | 38.12151 | 28842 ft | 426 kts | 161° |
| 2026-04-26 09:25 | 54.12806 | 38.14571 | 29328 ft | 429 kts | 161° |
| 2026-04-26 09:25 | 54.10168 | 38.17005 | 29768 ft | 432 kts | 161° |
| 2026-04-26 09:26 | 54.07553 | 38.19415 | 30188 ft | 434 kts | 161° |
| 2026-04-26 09:26 | 54.04890 | 38.21866 | 30645 ft | 436 kts | 161° |
| 2026-04-26 09:26 | 54.02205 | 38.24332 | 31076 ft | 439 kts | 161° |
| 2026-04-26 09:26 | 53.99507 | 38.26808 | 31493 ft | 441 kts | 161° |
| 2026-04-26 09:27 | 53.96806 | 38.29283 | 31955 ft | 443 kts | 161° |
| 2026-04-26 09:27 | 53.94990 | 38.30944 | 32216 ft | 445 kts | 160° |
| 2026-04-26 09:27 | 53.92244 | 38.33453 | 32625 ft | 448 kts | 160° |
| 2026-04-26 09:27 | 53.89515 | 38.35941 | 33017 ft | 451 kts | 160° |
| 2026-04-26 09:28 | 53.86719 | 38.38488 | 33415 ft | 453 kts | 160° |
| 2026-04-26 09:28 | 53.83931 | 38.41023 | 33717 ft | 457 kts | 160° |
| 2026-04-26 09:28 | 53.81111 | 38.43581 | 33961 ft | 462 kts | 160° |
| 2026-04-26 09:28 | 53.78266 | 38.46160 | 34281 ft | 465 kts | 160° |
| 2026-04-26 09:29 | 53.75429 | 38.48825 | 34597 ft | 471 kts | 156° |
| 2026-04-26 09:29 | 53.72703 | 38.51988 | 34948 ft | 480 kts | 150° |
| 2026-04-26 09:29 | 53.70130 | 38.55555 | 35271 ft | 484 kts | 148° |
| 2026-04-26 09:29 | 53.67542 | 38.59201 | 35618 ft | 486 kts | 147° |
| 2026-04-26 09:30 | 53.64931 | 38.62854 | 35974 ft | 488 kts | 147° |
| 2026-04-26 09:30 | 53.62314 | 38.66493 | 36299 ft | 489 kts | 147° |
| 2026-04-26 09:30 | 53.59678 | 38.70144 | 36648 ft | 491 kts | 147° |
| 2026-04-26 09:30 | 53.57036 | 38.73795 | 36986 ft | 493 kts | 147° |
| 2026-04-26 09:31 | 53.54381 | 38.77455 | 37348 ft | 494 kts | 147° |
| 2026-04-26 09:31 | 53.51717 | 38.81122 | 37665 ft | 496 kts | 147° |
| 2026-04-26 09:31 | 53.49042 | 38.84798 | 37988 ft | 497 kts | 146° |
| 2026-04-26 09:31 | 53.46313 | 38.88337 | 38305 ft | 495 kts | 150° |
| 2026-04-26 09:32 | 53.43436 | 38.91493 | 38495 ft | 494 kts | 155° |
| 2026-04-26 09:32 | 53.37302 | 38.96570 | 38514 ft | 484 kts | 163° |
| 2026-04-26 09:33 | 53.31051 | 39.00847 | 38514 ft | 486 kts | 163° |
| 2026-04-26 09:33 | 53.24796 | 39.05184 | 38519 ft | 487 kts | 163° |
| 2026-04-26 09:34 | 53.18552 | 39.09520 | 38523 ft | 486 kts | 163° |
| 2026-04-26 09:34 | 53.12322 | 39.13831 | 38527 ft | 486 kts | 163° |
| 2026-04-26 09:35 | 53.06073 | 39.18141 | 38534 ft | 487 kts | 163° |
| 2026-04-26 09:35 | 52.99804 | 39.22451 | 38541 ft | 487 kts | 163° |
| 2026-04-26 09:36 | 52.93537 | 39.26747 | 38560 ft | 487 kts | 163° |
| 2026-04-26 09:36 | 52.87279 | 39.31022 | 38575 ft | 487 kts | 163° |
| 2026-04-26 09:37 | 52.81011 | 39.35291 | 38582 ft | 486 kts | 163° |
| 2026-04-26 09:37 | 52.74758 | 39.39536 | 38586 ft | 486 kts | 163° |
| 2026-04-26 09:38 | 52.68513 | 39.43763 | 38584 ft | 486 kts | 163° |
| 2026-04-26 09:38 | 52.62254 | 39.47987 | 38579 ft | 485 kts | 163° |
| 2026-04-26 09:39 | 52.56044 | 39.52163 | 38580 ft | 485 kts | 163° |
| 2026-04-26 09:39 | 52.49793 | 39.56355 | 38581 ft | 485 kts | 163° |
| 2026-04-26 09:40 | 52.43562 | 39.60622 | 38591 ft | 488 kts | 160° |
| 2026-04-26 09:40 | 52.37482 | 39.65635 | 38594 ft | 489 kts | 159° |
| 2026-04-26 09:41 | 52.31401 | 39.70660 | 38606 ft | 492 kts | 159° |
| 2026-04-26 09:41 | 52.25328 | 39.75628 | 38614 ft | 508 kts | 159° |
| 2026-04-26 09:42 | 52.18939 | 39.80841 | 38625 ft | 514 kts | 159° |
| 2026-04-26 09:42 | 52.12599 | 39.86010 | 38634 ft | 513 kts | 159° |
| 2026-04-26 09:43 | 52.06169 | 39.91225 | 38643 ft | 514 kts | 159° |
| 2026-04-26 09:43 | 51.99757 | 39.96408 | 38649 ft | 515 kts | 159° |
| 2026-04-26 09:44 | 51.93359 | 40.01595 | 38657 ft | 516 kts | 159° |
| 2026-04-26 09:44 | 51.87053 | 40.06702 | 38664 ft | 514 kts | 159° |
| 2026-04-26 09:45 | 51.80655 | 40.11861 | 38673 ft | 513 kts | 159° |
| 2026-04-26 09:45 | 51.74284 | 40.16977 | 38681 ft | 513 kts | 159° |
| 2026-04-26 09:46 | 51.68070 | 40.22762 | 38688 ft | 518 kts | 152° |
| 2026-04-26 09:46 | 51.62007 | 40.29073 | 38698 ft | 518 kts | 152° |
| 2026-04-26 09:47 | 51.55937 | 40.35334 | 38699 ft | 518 kts | 153° |
| 2026-04-26 09:47 | 51.49901 | 40.41528 | 38708 ft | 518 kts | 153° |
| 2026-04-26 09:48 | 51.43820 | 40.47746 | 38711 ft | 518 kts | 153° |
| 2026-04-26 09:48 | 51.37740 | 40.53938 | 38724 ft | 517 kts | 153° |
| 2026-04-26 09:49 | 51.31356 | 40.59011 | 38734 ft | 508 kts | 165° |
| 2026-04-26 09:49 | 51.24598 | 40.61873 | 38727 ft | 499 kts | 176° |
| 2026-04-26 09:50 | 51.17713 | 40.63464 | 38731 ft | 499 kts | 176° |
| 2026-04-26 09:50 | 51.10847 | 40.65099 | 38742 ft | 499 kts | 176° |
| 2026-04-26 09:51 | 51.03985 | 40.66744 | 38752 ft | 499 kts | 176° |
| 2026-04-26 09:51 | 50.97116 | 40.68384 | 38755 ft | 498 kts | 176° |
| 2026-04-26 09:52 | 50.90252 | 40.70017 | 38756 ft | 498 kts | 176° |
| 2026-04-26 09:52 | 50.80033 | 40.72439 | 38769 ft | 501 kts | 176° |
| 2026-04-26 09:53 | 50.73165 | 40.74062 | 38770 ft | 498 kts | 176° |
| 2026-04-26 09:53 | 50.66440 | 40.75680 | 38778 ft | 500 kts | 174° |
| 2026-04-26 09:54 | 50.59567 | 40.78844 | 38787 ft | 510 kts | 162° |
| 2026-04-26 09:54 | 50.53246 | 40.84095 | 38794 ft | 518 kts | 152° |
| 2026-04-26 09:55 | 50.47162 | 40.90153 | 38798 ft | 518 kts | 153° |
| 2026-04-26 09:55 | 50.41044 | 40.96153 | 38805 ft | 518 kts | 153° |
| 2026-04-26 09:56 | 50.34963 | 41.02075 | 38809 ft | 518 kts | 153° |
| 2026-04-26 09:56 | 50.28902 | 41.07960 | 38817 ft | 518 kts | 153° |
| 2026-04-26 09:57 | 50.22766 | 41.13899 | 38819 ft | 519 kts | 153° |
| 2026-04-26 09:57 | 50.16639 | 41.19813 | 38821 ft | 518 kts | 153° |
| 2026-04-26 09:58 | 50.10509 | 41.25711 | 38837 ft | 518 kts | 153° |
| 2026-04-26 09:58 | 50.04367 | 41.31604 | 38840 ft | 518 kts | 153° |
| 2026-04-26 09:59 | 49.99135 | 41.36038 | 38844 ft | 513 kts | 161° |
| 2026-04-26 09:59 | 49.91317 | 41.39976 | 38855 ft | 504 kts | 173° |
| 2026-04-26 10:00 | 49.84425 | 41.41768 | 38852 ft | 501 kts | 175° |
| 2026-04-26 10:00 | 49.77513 | 41.43561 | 38857 ft | 506 kts | 175° |
| 2026-04-26 10:01 | 49.70639 | 41.45362 | 38864 ft | 502 kts | 175° |
| 2026-04-26 10:01 | 49.63732 | 41.47164 | 38865 ft | 504 kts | 175° |
| 2026-04-26 10:02 | 49.56818 | 41.48962 | 38872 ft | 506 kts | 175° |
| 2026-04-26 10:02 | 49.49873 | 41.50762 | 38877 ft | 506 kts | 175° |
| 2026-04-26 10:03 | 49.42936 | 41.52557 | 38881 ft | 505 kts | 175° |
| 2026-04-26 10:03 | 49.35982 | 41.54350 | 38887 ft | 506 kts | 175° |
| 2026-04-26 10:04 | 49.29038 | 41.56135 | 38888 ft | 506 kts | 175° |
| 2026-04-26 10:04 | 49.22090 | 41.57916 | 38892 ft | 507 kts | 175° |
| 2026-04-26 10:05 | 49.15135 | 41.59694 | 38901 ft | 507 kts | 175° |
| 2026-04-26 10:05 | 49.08202 | 41.61461 | 38903 ft | 508 kts | 175° |
| 2026-04-26 10:06 | 49.01220 | 41.63236 | 38905 ft | 508 kts | 175° |
| 2026-04-26 10:06 | 48.94223 | 41.65009 | 38908 ft | 509 kts | 175° |
| 2026-04-26 10:07 | 48.87227 | 41.66777 | 38908 ft | 509 kts | 175° |
| 2026-04-26 10:07 | 48.80238 | 41.68539 | 38912 ft | 510 kts | 175° |
| 2026-04-26 10:08 | 48.73242 | 41.70297 | 38927 ft | 510 kts | 175° |
| 2026-04-26 10:08 | 48.67412 | 41.71757 | 38912 ft | 511 kts | 175° |
| 2026-04-26 10:09 | 48.60400 | 41.73511 | 38920 ft | 510 kts | 175° |
| 2026-04-26 10:09 | 48.53392 | 41.75258 | 38920 ft | 511 kts | 175° |
| 2026-04-26 10:10 | 48.46364 | 41.77005 | 38922 ft | 511 kts | 175° |
| 2026-04-26 10:10 | 48.39403 | 41.78731 | 38924 ft | 511 kts | 175° |
| 2026-04-26 10:11 | 48.32409 | 41.80612 | 38930 ft | 513 kts | 171° |
| 2026-04-26 10:11 | 48.25454 | 41.83136 | 38926 ft | 515 kts | 171° |
| 2026-04-26 10:12 | 48.18494 | 41.85651 | 38934 ft | 513 kts | 171° |
| 2026-04-26 10:12 | 48.11530 | 41.88142 | 38933 ft | 514 kts | 171° |
| 2026-04-26 10:13 | 48.04570 | 41.90623 | 38933 ft | 515 kts | 171° |
| 2026-04-26 10:13 | 47.97600 | 41.93100 | 38937 ft | 514 kts | 171° |
| 2026-04-26 10:14 | 47.90635 | 41.95569 | 38946 ft | 516 kts | 171° |
| 2026-04-26 10:14 | 47.83708 | 41.98018 | 38943 ft | 514 kts | 171° |
| 2026-04-26 10:15 | 47.76674 | 42.00498 | 38948 ft | 514 kts | 171° |
| 2026-04-26 10:15 | 47.69689 | 42.02951 | 38952 ft | 516 kts | 171° |
| 2026-04-26 10:16 | 47.62701 | 42.05401 | 38959 ft | 515 kts | 171° |
| 2026-04-26 10:16 | 47.55710 | 42.07843 | 38954 ft | 517 kts | 171° |
| 2026-04-26 10:17 | 47.48773 | 42.10262 | 38963 ft | 516 kts | 171° |
| 2026-04-26 10:17 | 47.41732 | 42.12709 | 38960 ft | 516 kts | 171° |
| 2026-04-26 10:18 | 47.34791 | 42.15115 | 38968 ft | 517 kts | 171° |
| 2026-04-26 10:18 | 47.27796 | 42.17533 | 38969 ft | 516 kts | 171° |
| 2026-04-26 10:19 | 47.20799 | 42.19945 | 38973 ft | 516 kts | 171° |
| 2026-04-26 10:19 | 47.13803 | 42.22350 | 38974 ft | 516 kts | 171° |
| 2026-04-26 10:20 | 47.06813 | 42.24747 | 38981 ft | 516 kts | 171° |
| 2026-04-26 10:20 | 46.99791 | 42.26987 | 38981 ft | 513 kts | 175° |
| 2026-04-26 10:21 | 46.92746 | 42.28673 | 38987 ft | 513 kts | 175° |
| 2026-04-26 10:21 | 46.85677 | 42.30376 | 38982 ft | 514 kts | 175° |
| 2026-04-26 10:22 | 46.78612 | 42.32084 | 38997 ft | 514 kts | 175° |
| 2026-04-26 10:22 | 46.71602 | 42.33773 | 38987 ft | 513 kts | 175° |
| 2026-04-26 10:23 | 46.64567 | 42.35892 | 39003 ft | 516 kts | 172° |
| 2026-04-26 10:23 | 46.57554 | 42.38177 | 38997 ft | 516 kts | 172° |
| 2026-04-26 10:24 | 46.50547 | 42.40440 | 39005 ft | 517 kts | 172° |
| 2026-04-26 10:24 | 46.43511 | 42.42701 | 39002 ft | 518 kts | 172° |
| 2026-04-26 10:25 | 46.36487 | 42.44954 | 39005 ft | 517 kts | 172° |
| 2026-04-26 10:25 | 46.29464 | 42.47199 | 39006 ft | 515 kts | 172° |
| 2026-04-26 10:26 | 46.22451 | 42.49435 | 39012 ft | 517 kts | 172° |
| 2026-04-26 10:26 | 46.15485 | 42.51651 | 39006 ft | 516 kts | 172° |
| 2026-04-26 10:27 | 46.08462 | 42.53879 | 39011 ft | 516 kts | 172° |
| 2026-04-26 10:27 | 46.01436 | 42.55989 | 39005 ft | 516 kts | 173° |
| 2026-04-26 10:28 | 45.94415 | 42.58051 | 39008 ft | 514 kts | 173° |
| 2026-04-26 10:28 | 45.87391 | 42.60123 | 39009 ft | 516 kts | 173° |
| 2026-04-26 10:29 | 45.80364 | 42.62200 | 39017 ft | 513 kts | 173° |
| 2026-04-26 10:29 | 45.73357 | 42.64264 | 39013 ft | 515 kts | 173° |
| 2026-04-26 10:30 | 45.66367 | 42.66318 | 39014 ft | 515 kts | 173° |
| 2026-04-26 10:30 | 45.59316 | 42.68385 | 39009 ft | 515 kts | 173° |
| 2026-04-26 10:31 | 45.52344 | 42.70425 | 39015 ft | 515 kts | 173° |
| 2026-04-26 10:31 | 45.45303 | 42.72478 | 39009 ft | 515 kts | 173° |
| 2026-04-26 10:32 | 45.38321 | 42.74836 | 39013 ft | 518 kts | 170° |
| 2026-04-26 10:32 | 45.31324 | 42.77341 | 39012 ft | 517 kts | 170° |
| 2026-04-26 10:33 | 45.24324 | 42.79787 | 39014 ft | 517 kts | 171° |
| 2026-04-26 10:33 | 45.17324 | 42.82205 | 39009 ft | 517 kts | 171° |
| 2026-04-26 10:34 | 45.10381 | 42.84595 | 39014 ft | 518 kts | 171° |
| 2026-04-26 10:34 | 45.03380 | 42.86999 | 39009 ft | 517 kts | 171° |
| 2026-04-26 10:35 | 44.96381 | 42.89405 | 39013 ft | 518 kts | 171° |
| 2026-04-26 10:35 | 44.89373 | 42.91813 | 39011 ft | 518 kts | 171° |
| 2026-04-26 10:36 | 44.82364 | 42.94213 | 39014 ft | 519 kts | 171° |
| 2026-04-26 10:36 | 44.75353 | 42.96608 | 39011 ft | 519 kts | 171° |
| 2026-04-26 10:37 | 44.68337 | 42.99002 | 39015 ft | 519 kts | 171° |
| 2026-04-26 10:37 | 44.61299 | 43.01347 | 39009 ft | 517 kts | 174° |
| 2026-04-26 10:38 | 44.54255 | 43.02471 | 39019 ft | 511 kts | 181° |
| 2026-04-26 10:38 | 44.47153 | 43.03118 | 39015 ft | 512 kts | 181° |
| 2026-04-26 10:39 | 44.40039 | 43.03800 | 39019 ft | 511 kts | 181° |
| 2026-04-26 10:39 | 44.32925 | 43.04489 | 39017 ft | 513 kts | 181° |
| 2026-04-26 10:40 | 44.25844 | 43.05174 | 39019 ft | 513 kts | 181° |
| 2026-04-26 10:40 | 44.18723 | 43.06265 | 39016 ft | 516 kts | 178° |
| 2026-04-26 10:41 | 44.11601 | 43.07545 | 39028 ft | 516 kts | 178° |
| 2026-04-26 10:41 | 44.04483 | 43.08808 | 39021 ft | 517 kts | 178° |
| 2026-04-26 10:42 | 43.98550 | 43.09856 | 39010 ft | 516 kts | 178° |
| 2026-04-26 10:42 | 43.90252 | 43.11316 | 38999 ft | 517 kts | 178° |
| 2026-04-26 10:43 | 43.83067 | 43.12578 | 38993 ft | 516 kts | 178° |
| 2026-04-26 10:43 | 43.75991 | 43.13818 | 38987 ft | 516 kts | 178° |
| 2026-04-26 10:44 | 43.68878 | 43.15064 | 38987 ft | 515 kts | 178° |
| 2026-04-26 10:44 | 43.61774 | 43.16312 | 38987 ft | 515 kts | 178° |
| 2026-04-26 10:45 | 43.54681 | 43.17556 | 38986 ft | 512 kts | 178° |
| 2026-04-26 10:45 | 43.47622 | 43.18790 | 38984 ft | 511 kts | 178° |
| 2026-04-26 10:46 | 43.40526 | 43.20025 | 38987 ft | 514 kts | 178° |
| 2026-04-26 10:46 | 43.33455 | 43.21259 | 38991 ft | 515 kts | 178° |
| 2026-04-26 10:47 | 43.26293 | 43.22513 | 38998 ft | 516 kts | 178° |
| 2026-04-26 10:47 | 43.19165 | 43.23756 | 39005 ft | 516 kts | 177° |
| 2026-04-26 10:48 | 43.12065 | 43.24993 | 39023 ft | 514 kts | 178° |
| 2026-04-26 10:48 | 43.05014 | 43.26220 | 39021 ft | 516 kts | 178° |
| 2026-04-26 10:49 | 42.97897 | 43.27472 | 39026 ft | 517 kts | 176° |
| 2026-04-26 10:49 | 42.90846 | 43.29843 | 39032 ft | 528 kts | 165° |
| 2026-04-26 10:50 | 42.85166 | 43.33198 | 39037 ft | 536 kts | 156° |
| 2026-04-26 10:50 | 42.77530 | 43.38760 | 39037 ft | 533 kts | 156° |
| 2026-04-26 10:51 | 42.68800 | 43.45020 | 39038 ft | 533 kts | 156° |
| 2026-04-26 10:52 | 42.62245 | 43.49694 | 39040 ft | 531 kts | 157° |
| 2026-04-26 10:52 | 42.55695 | 43.54353 | 39052 ft | 531 kts | 157° |
| 2026-04-26 10:53 | 42.49159 | 43.58993 | 39054 ft | 529 kts | 157° |
| 2026-04-26 10:53 | 42.42620 | 43.63622 | 39060 ft | 529 kts | 157° |
| 2026-04-26 10:54 | 42.32811 | 43.70549 | 39066 ft | 529 kts | 157° |
| 2026-04-26 10:54 | 42.26259 | 43.75162 | 39063 ft | 529 kts | 157° |
| 2026-04-26 10:55 | 42.19763 | 43.79725 | 39069 ft | 530 kts | 158° |
| 2026-04-26 10:55 | 42.13216 | 43.84312 | 39073 ft | 528 kts | 158° |
| 2026-04-26 10:56 | 42.06688 | 43.88877 | 39077 ft | 527 kts | 158° |
| 2026-04-26 10:56 | 42.00183 | 43.93414 | 39076 ft | 526 kts | 158° |
| 2026-04-26 10:57 | 41.93680 | 43.97938 | 39090 ft | 526 kts | 158° |
| 2026-04-26 10:57 | 41.87167 | 44.02460 | 39091 ft | 527 kts | 158° |
| 2026-04-26 10:58 | 41.80657 | 44.06970 | 39106 ft | 526 kts | 158° |
| 2026-04-26 10:58 | 41.74127 | 44.11482 | 39116 ft | 527 kts | 159° |
| 2026-04-26 10:59 | 41.67575 | 44.15998 | 39120 ft | 529 kts | 159° |
| 2026-04-26 10:59 | 41.61034 | 44.20499 | 39132 ft | 529 kts | 159° |
| 2026-04-26 11:00 | 41.54519 | 44.24996 | 39147 ft | 532 kts | 158° |
| 2026-04-26 11:00 | 41.48006 | 44.29682 | 39157 ft | 528 kts | 158° |
| 2026-04-26 11:01 | 41.41554 | 44.34317 | 39159 ft | 528 kts | 158° |
| 2026-04-26 11:01 | 41.35079 | 44.38935 | 39163 ft | 526 kts | 158° |
| 2026-04-26 11:02 | 41.28618 | 44.43527 | 39159 ft | 526 kts | 158° |
| 2026-04-26 11:02 | 41.22158 | 44.48108 | 39163 ft | 525 kts | 158° |
| 2026-04-26 11:03 | 41.15743 | 44.52631 | 39157 ft | 524 kts | 159° |
| 2026-04-26 11:03 | 41.09288 | 44.57101 | 39154 ft | 522 kts | 159° |
| 2026-04-26 11:04 | 41.02838 | 44.61561 | 39145 ft | 522 kts | 159° |
| 2026-04-26 11:04 | 40.96386 | 44.66019 | 39139 ft | 521 kts | 159° |
| 2026-04-26 11:05 | 40.89955 | 44.70454 | 39144 ft | 521 kts | 159° |
| 2026-04-26 11:05 | 40.83527 | 44.74879 | 39129 ft | 518 kts | 159° |
| 2026-04-26 11:06 | 40.77144 | 44.79265 | 39128 ft | 517 kts | 159° |
| 2026-04-26 11:06 | 40.70761 | 44.83635 | 39124 ft | 517 kts | 159° |
| 2026-04-26 11:07 | 40.64447 | 44.87953 | 39121 ft | 513 kts | 160° |
| 2026-04-26 11:07 | 40.58112 | 44.92274 | 39119 ft | 513 kts | 160° |
| 2026-04-26 11:08 | 40.51920 | 44.96992 | 39115 ft | 520 kts | 152° |
| 2026-04-26 11:08 | 40.46148 | 45.02812 | 39113 ft | 522 kts | 149° |
| 2026-04-26 11:09 | 40.40398 | 45.08656 | 39107 ft | 522 kts | 149° |
| 2026-04-26 11:09 | 40.34637 | 45.14473 | 39110 ft | 522 kts | 149° |
| 2026-04-26 11:10 | 40.28872 | 45.20277 | 39108 ft | 521 kts | 150° |
| 2026-04-26 11:10 | 40.23142 | 45.26034 | 39104 ft | 523 kts | 149° |
| 2026-04-26 11:11 | 40.17363 | 45.31828 | 39108 ft | 523 kts | 149° |
| 2026-04-26 11:11 | 40.11574 | 45.37620 | 39104 ft | 524 kts | 149° |
| 2026-04-26 11:12 | 40.05785 | 45.43400 | 39097 ft | 522 kts | 149° |
| 2026-04-26 11:12 | 40.00026 | 45.49136 | 39097 ft | 520 kts | 150° |
| 2026-04-26 11:13 | 39.94295 | 45.54968 | 39100 ft | 524 kts | 148° |
| 2026-04-26 11:13 | 39.88591 | 45.60881 | 39098 ft | 522 kts | 148° |
| 2026-04-26 11:14 | 39.82873 | 45.66764 | 39092 ft | 523 kts | 148° |
| 2026-04-26 11:14 | 39.78110 | 45.71643 | 39099 ft | 523 kts | 148° |
| 2026-04-26 11:15 | 39.71445 | 45.78455 | 39095 ft | 523 kts | 148° |
| 2026-04-26 11:15 | 39.65601 | 45.84072 | 39097 ft | 516 kts | 154° |
| 2026-04-26 11:16 | 39.59386 | 45.88641 | 39097 ft | 513 kts | 157° |
| 2026-04-26 11:16 | 39.53154 | 45.93149 | 39096 ft | 513 kts | 157° |
| 2026-04-26 11:17 | 39.46934 | 45.97656 | 39098 ft | 512 kts | 157° |
| 2026-04-26 11:17 | 39.40713 | 46.02156 | 39101 ft | 513 kts | 157° |
| 2026-04-26 11:18 | 39.34499 | 46.06642 | 39093 ft | 511 kts | 156° |
| 2026-04-26 11:18 | 39.28298 | 46.11107 | 39103 ft | 509 kts | 156° |
| 2026-04-26 11:19 | 39.22145 | 46.15524 | 39116 ft | 510 kts | 156° |
| 2026-04-26 11:19 | 39.15961 | 46.19957 | 39124 ft | 509 kts | 157° |
| 2026-04-26 11:20 | 39.10771 | 46.23670 | 39122 ft | 508 kts | 156° |
| 2026-04-26 11:20 | 39.03589 | 46.28809 | 39126 ft | 508 kts | 156° |
| 2026-04-26 11:21 | 38.97399 | 46.33223 | 39126 ft | 508 kts | 157° |
| 2026-04-26 11:21 | 38.91217 | 46.37653 | 39136 ft | 511 kts | 154° |
| 2026-04-26 11:22 | 38.85370 | 46.42949 | 39125 ft | 515 kts | 148° |
| 2026-04-26 11:22 | 38.79648 | 46.48471 | 39127 ft | 514 kts | 149° |
| 2026-04-26 11:23 | 38.73916 | 46.53971 | 39124 ft | 513 kts | 149° |
| 2026-04-26 11:23 | 38.68250 | 46.59385 | 39125 ft | 510 kts | 149° |
| 2026-04-26 11:24 | 38.62542 | 46.64822 | 39113 ft | 511 kts | 149° |
| 2026-04-26 11:24 | 38.56829 | 46.70256 | 39104 ft | 511 kts | 149° |
| 2026-04-26 11:25 | 38.51116 | 46.75673 | 39093 ft | 510 kts | 149° |
| 2026-04-26 11:25 | 38.45407 | 46.81065 | 39086 ft | 510 kts | 149° |
| 2026-04-26 11:26 | 38.39714 | 46.86433 | 39076 ft | 509 kts | 149° |
| 2026-04-26 11:26 | 38.34006 | 46.91806 | 39075 ft | 510 kts | 149° |
| 2026-04-26 11:27 | 38.28341 | 46.97141 | 39078 ft | 509 kts | 149° |
| 2026-04-26 11:27 | 38.22645 | 47.02502 | 39071 ft | 509 kts | 149° |
| 2026-04-26 11:28 | 38.16952 | 47.07847 | 39069 ft | 508 kts | 149° |
| 2026-04-26 11:28 | 38.11263 | 47.13173 | 39081 ft | 507 kts | 148° |
| 2026-04-26 11:29 | 38.05579 | 47.18489 | 39068 ft | 506 kts | 148° |
| 2026-04-26 11:29 | 37.99878 | 47.23809 | 39070 ft | 508 kts | 148° |
| 2026-04-26 11:30 | 37.95136 | 47.28227 | 39086 ft | 508 kts | 148° |
| 2026-04-26 11:30 | 37.88505 | 47.34390 | 39083 ft | 508 kts | 148° |
| 2026-04-26 11:31 | 37.83765 | 47.38792 | 39080 ft | 509 kts | 148° |
| 2026-04-26 11:31 | 37.78050 | 47.44090 | 39076 ft | 510 kts | 148° |
| 2026-04-26 11:32 | 37.72330 | 47.49385 | 39069 ft | 509 kts | 148° |
| 2026-04-26 11:32 | 37.66593 | 47.54683 | 39069 ft | 510 kts | 148° |
| 2026-04-26 11:33 | 37.60855 | 47.59971 | 39066 ft | 511 kts | 148° |
| 2026-04-26 11:33 | 37.55150 | 47.65220 | 39064 ft | 511 kts | 148° |
| 2026-04-26 11:34 | 37.49402 | 47.70499 | 39058 ft | 511 kts | 148° |
| 2026-04-26 11:34 | 37.43639 | 47.75779 | 39052 ft | 512 kts | 148° |
| 2026-04-26 11:35 | 37.37870 | 47.81060 | 39050 ft | 513 kts | 148° |
| 2026-04-26 11:35 | 37.32152 | 47.86288 | 39047 ft | 514 kts | 148° |
| 2026-04-26 11:36 | 37.26309 | 47.91619 | 39041 ft | 514 kts | 148° |
| 2026-04-26 11:36 | 37.20506 | 47.96902 | 39044 ft | 515 kts | 148° |
| 2026-04-26 11:37 | 37.14696 | 48.02182 | 39055 ft | 515 kts | 148° |
| 2026-04-26 11:37 | 37.08911 | 48.07428 | 39045 ft | 516 kts | 148° |
| 2026-04-26 11:38 | 37.03060 | 48.12724 | 39060 ft | 519 kts | 149° |
| 2026-04-26 11:38 | 36.97243 | 48.17981 | 39080 ft | 517 kts | 149° |
| 2026-04-26 11:39 | 36.91390 | 48.23258 | 39097 ft | 519 kts | 149° |
| 2026-04-26 11:39 | 36.85526 | 48.28536 | 39099 ft | 519 kts | 149° |
| 2026-04-26 11:40 | 36.79658 | 48.33809 | 39100 ft | 520 kts | 148° |
| 2026-04-26 11:40 | 36.74151 | 48.39785 | 39105 ft | 528 kts | 141° |
| 2026-04-26 11:42 | 36.52798 | 48.64958 | 39088 ft | 530 kts | 142° |
| 2026-04-26 11:43 | 36.47425 | 48.71247 | 39093 ft | 530 kts | 142° |
| 2026-04-26 11:43 | 36.42044 | 48.77530 | 39094 ft | 531 kts | 142° |
| 2026-04-26 11:44 | 36.36657 | 48.83815 | 39093 ft | 532 kts | 142° |
| 2026-04-26 11:44 | 36.31255 | 48.90106 | 39096 ft | 532 kts | 142° |
| 2026-04-26 11:45 | 36.25861 | 48.96377 | 39099 ft | 533 kts | 142° |
| 2026-04-26 11:45 | 36.20445 | 49.02656 | 39098 ft | 533 kts | 142° |
| 2026-04-26 11:46 | 36.15017 | 49.08935 | 39096 ft | 534 kts | 142° |
| 2026-04-26 11:46 | 36.09568 | 49.15227 | 39093 ft | 535 kts | 142° |
| 2026-04-26 11:47 | 36.04163 | 49.21458 | 39086 ft | 533 kts | 142° |
| 2026-04-26 11:47 | 35.98730 | 49.27707 | 39080 ft | 534 kts | 143° |
| 2026-04-26 11:48 | 35.93282 | 49.33960 | 39083 ft | 535 kts | 143° |
| 2026-04-26 11:48 | 35.87822 | 49.40216 | 39076 ft | 536 kts | 143° |
| 2026-04-26 11:49 | 35.82347 | 49.46477 | 39076 ft | 536 kts | 143° |
| 2026-04-26 11:49 | 35.76877 | 49.52721 | 39072 ft | 537 kts | 143° |
| 2026-04-26 11:50 | 35.71396 | 49.58964 | 39079 ft | 538 kts | 143° |
| 2026-04-26 11:50 | 35.65903 | 49.65208 | 39087 ft | 537 kts | 143° |
| 2026-04-26 11:51 | 35.60404 | 49.71447 | 39090 ft | 538 kts | 143° |
| 2026-04-26 11:51 | 35.54905 | 49.77675 | 39085 ft | 538 kts | 144° |
| 2026-04-26 11:52 | 35.50320 | 49.82856 | 39101 ft | 539 kts | 144° |
| 2026-04-26 11:52 | 35.43908 | 49.90089 | 39101 ft | 540 kts | 144° |
| 2026-04-26 11:53 | 35.38375 | 49.96318 | 39097 ft | 539 kts | 144° |
| 2026-04-26 11:54 | 35.30063 | 50.05652 | 39083 ft | 540 kts | 144° |
| 2026-04-26 11:54 | 35.24515 | 50.11869 | 39076 ft | 540 kts | 144° |
| 2026-04-26 11:55 | 35.18960 | 50.18079 | 39068 ft | 540 kts | 144° |
| 2026-04-26 11:55 | 35.13404 | 50.24278 | 39065 ft | 540 kts | 144° |
| 2026-04-26 11:56 | 35.07835 | 50.30481 | 39061 ft | 541 kts | 144° |
| 2026-04-26 11:56 | 35.01974 | 50.35977 | 39063 ft | 530 kts | 155° |
| 2026-04-26 11:57 | 34.95455 | 50.39920 | 39060 ft | 517 kts | 167° |
| 2026-04-26 11:57 | 34.88685 | 50.42802 | 39062 ft | 516 kts | 168° |
| 2026-04-26 11:58 | 34.81900 | 50.45718 | 39059 ft | 517 kts | 168° |
| 2026-04-26 11:58 | 34.75117 | 50.48631 | 39065 ft | 517 kts | 168° |
| 2026-04-26 11:59 | 34.68312 | 50.51547 | 39061 ft | 518 kts | 168° |
| 2026-04-26 11:59 | 34.61505 | 50.54464 | 39073 ft | 517 kts | 168° |
| 2026-04-26 12:00 | 34.54693 | 50.57376 | 39074 ft | 519 kts | 168° |
| 2026-04-26 12:00 | 34.47870 | 50.60289 | 39084 ft | 520 kts | 168° |
| 2026-04-26 12:01 | 34.41027 | 50.63204 | 39093 ft | 521 kts | 168° |
| 2026-04-26 12:01 | 34.34167 | 50.66122 | 39103 ft | 522 kts | 168° |
| 2026-04-26 12:02 | 34.27315 | 50.69032 | 39106 ft | 523 kts | 168° |
| 2026-04-26 12:02 | 34.20414 | 50.71956 | 39124 ft | 526 kts | 168° |
| 2026-04-26 12:03 | 34.13520 | 50.74876 | 39135 ft | 528 kts | 169° |
| 2026-04-26 12:03 | 34.06703 | 50.77759 | 39148 ft | 518 kts | 169° |
| 2026-04-26 12:04 | 33.99837 | 50.80649 | 39158 ft | 524 kts | 169° |
| 2026-04-26 12:04 | 33.92951 | 50.83546 | 39171 ft | 523 kts | 169° |
| 2026-04-26 12:05 | 33.86086 | 50.86433 | 39177 ft | 524 kts | 169° |
| 2026-04-26 12:05 | 33.79196 | 50.89323 | 39186 ft | 524 kts | 169° |
| 2026-04-26 12:06 | 33.72309 | 50.92207 | 39196 ft | 523 kts | 169° |
| 2026-04-26 12:06 | 33.65422 | 50.95086 | 39205 ft | 525 kts | 169° |
| 2026-04-26 12:07 | 33.58576 | 50.97944 | 39207 ft | 524 kts | 169° |
| 2026-04-26 12:07 | 33.51672 | 51.00819 | 39210 ft | 525 kts | 169° |
| 2026-04-26 12:08 | 33.44771 | 51.03691 | 39210 ft | 525 kts | 169° |
| 2026-04-26 12:08 | 33.37865 | 51.06556 | 39207 ft | 526 kts | 170° |
| 2026-04-26 12:09 | 33.30927 | 51.09429 | 39198 ft | 528 kts | 170° |
| 2026-04-26 12:09 | 33.23986 | 51.12300 | 39191 ft | 527 kts | 170° |
| 2026-04-26 12:10 | 33.17105 | 51.15141 | 39182 ft | 528 kts | 170° |
| 2026-04-26 12:10 | 33.11273 | 51.17544 | 39171 ft | 529 kts | 170° |
| 2026-04-26 12:11 | 33.03165 | 51.20883 | 39156 ft | 530 kts | 170° |
| 2026-04-26 12:11 | 32.97359 | 51.23267 | 39152 ft | 530 kts | 170° |
| 2026-04-26 12:12 | 32.90379 | 51.26131 | 39139 ft | 530 kts | 170° |
| 2026-04-26 12:12 | 32.83406 | 51.28988 | 39129 ft | 531 kts | 170° |
| 2026-04-26 12:13 | 32.76411 | 51.31851 | 39119 ft | 529 kts | 170° |
| 2026-04-26 12:13 | 32.69437 | 51.34700 | 39112 ft | 530 kts | 170° |
| 2026-04-26 12:14 | 32.62481 | 51.37536 | 39112 ft | 532 kts | 170° |
| 2026-04-26 12:14 | 32.55481 | 51.40388 | 39097 ft | 533 kts | 170° |
| 2026-04-26 12:15 | 32.48472 | 51.43238 | 39101 ft | 532 kts | 170° |
| 2026-04-26 12:15 | 32.41459 | 51.46085 | 39101 ft | 531 kts | 170° |
| 2026-04-26 12:16 | 32.34446 | 51.48924 | 39104 ft | 534 kts | 170° |
| 2026-04-26 12:16 | 32.27445 | 51.51755 | 39107 ft | 533 kts | 170° |
| 2026-04-26 12:17 | 32.20413 | 51.54595 | 39112 ft | 534 kts | 170° |
| 2026-04-26 12:17 | 32.13374 | 51.57432 | 39122 ft | 533 kts | 170° |
| 2026-04-26 12:18 | 32.06348 | 51.60260 | 39130 ft | 534 kts | 170° |
| 2026-04-26 12:18 | 31.99299 | 51.63091 | 39139 ft | 534 kts | 170° |
| 2026-04-26 12:19 | 31.92256 | 51.65916 | 39147 ft | 534 kts | 170° |
| 2026-04-26 12:19 | 31.85295 | 51.68708 | 39155 ft | 529 kts | 170° |
| 2026-04-26 12:20 | 31.78346 | 51.71492 | 39173 ft | 526 kts | 170° |
| 2026-04-26 12:20 | 31.71389 | 51.74263 | 39168 ft | 530 kts | 170° |
| 2026-04-26 12:21 | 31.64399 | 51.77052 | 39173 ft | 530 kts | 170° |
| 2026-04-26 12:21 | 31.57409 | 51.79840 | 39177 ft | 530 kts | 170° |
| 2026-04-26 12:22 | 31.50419 | 51.82621 | 39178 ft | 531 kts | 170° |
| 2026-04-26 12:22 | 31.43415 | 51.85406 | 39179 ft | 531 kts | 170° |
| 2026-04-26 12:23 | 31.36445 | 51.88171 | 39182 ft | 533 kts | 170° |
| 2026-04-26 12:23 | 31.29429 | 51.90949 | 39182 ft | 533 kts | 170° |
| 2026-04-26 12:24 | 31.22393 | 51.93732 | 39182 ft | 533 kts | 170° |
| 2026-04-26 12:24 | 31.15376 | 51.96503 | 39185 ft | 532 kts | 170° |
| 2026-04-26 12:25 | 31.04813 | 52.00664 | 39189 ft | 533 kts | 170° |
| 2026-04-26 12:25 | 30.97784 | 52.03429 | 39192 ft | 533 kts | 170° |
| 2026-04-26 12:26 | 30.90761 | 52.06186 | 39191 ft | 533 kts | 170° |
| 2026-04-26 12:26 | 30.83737 | 52.08940 | 39196 ft | 534 kts | 170° |
| 2026-04-26 12:27 | 30.76715 | 52.11689 | 39200 ft | 534 kts | 170° |
| 2026-04-26 12:27 | 30.69670 | 52.14442 | 39200 ft | 534 kts | 170° |
| 2026-04-26 12:28 | 30.62624 | 52.17190 | 39202 ft | 534 kts | 170° |
| 2026-04-26 12:28 | 30.55573 | 52.19925 | 39204 ft | 535 kts | 170° |
| 2026-04-26 12:29 | 30.48490 | 52.22668 | 39193 ft | 535 kts | 170° |
| 2026-04-26 12:30 | 30.37886 | 52.26768 | 39192 ft | 535 kts | 170° |
| 2026-04-26 12:30 | 30.30900 | 52.29465 | 39193 ft | 536 kts | 170° |
| 2026-04-26 12:31 | 30.20274 | 52.33558 | 39183 ft | 536 kts | 170° |
| 2026-04-26 12:31 | 30.13188 | 52.36284 | 39182 ft | 537 kts | 170° |
| 2026-04-26 12:32 | 30.06106 | 52.39003 | 39173 ft | 536 kts | 170° |
| 2026-04-26 12:33 | 29.95501 | 52.43065 | 39168 ft | 537 kts | 170° |
| 2026-04-26 12:33 | 29.88409 | 52.45778 | 39163 ft | 536 kts | 170° |
| 2026-04-26 12:34 | 29.81350 | 52.48473 | 39154 ft | 537 kts | 170° |
| 2026-04-26 12:34 | 29.74241 | 52.51183 | 39142 ft | 537 kts | 170° |
| 2026-04-26 12:35 | 29.67153 | 52.53882 | 39143 ft | 538 kts | 170° |
| 2026-04-26 12:35 | 29.60019 | 52.56595 | 39145 ft | 538 kts | 170° |
| 2026-04-26 12:36 | 29.52970 | 52.59693 | 39141 ft | 549 kts | 162° |
| 2026-04-26 12:36 | 29.46292 | 52.64023 | 39148 ft | 556 kts | 157° |
| 2026-04-26 12:37 | 29.39600 | 52.68527 | 39141 ft | 556 kts | 157° |
| 2026-04-26 12:37 | 29.32905 | 52.73001 | 39138 ft | 557 kts | 157° |
| 2026-04-26 12:38 | 29.26740 | 52.77113 | 39141 ft | 557 kts | 157° |
| 2026-04-26 12:38 | 29.20119 | 52.81525 | 39142 ft | 557 kts | 157° |
| 2026-04-26 12:39 | 29.13411 | 52.85988 | 39141 ft | 557 kts | 157° |
| 2026-04-26 12:39 | 29.06712 | 52.90437 | 39129 ft | 558 kts | 157° |
| 2026-04-26 12:40 | 28.99979 | 52.94903 | 39132 ft | 558 kts | 157° |
| 2026-04-26 12:40 | 28.93269 | 52.99351 | 39115 ft | 556 kts | 157° |
| 2026-04-26 12:41 | 28.86579 | 53.03777 | 39105 ft | 557 kts | 157° |
| 2026-04-26 12:41 | 28.79849 | 53.08221 | 39090 ft | 558 kts | 157° |
| 2026-04-26 12:42 | 28.73170 | 53.12627 | 39078 ft | 558 kts | 157° |
| 2026-04-26 12:42 | 28.66448 | 53.17055 | 39063 ft | 558 kts | 157° |
| 2026-04-26 12:43 | 28.59722 | 53.21479 | 39055 ft | 558 kts | 157° |
| 2026-04-26 12:43 | 28.52906 | 53.25651 | 39040 ft | 550 kts | 163° |
| 2026-04-26 12:44 | 28.45768 | 53.28515 | 39026 ft | 542 kts | 171° |
| 2026-04-26 12:44 | 28.38560 | 53.31064 | 39024 ft | 542 kts | 170° |
| 2026-04-26 12:45 | 28.31373 | 53.33630 | 39016 ft | 541 kts | 170° |
| 2026-04-26 12:45 | 28.24228 | 53.36179 | 39016 ft | 541 kts | 170° |
| 2026-04-26 12:46 | 28.17034 | 53.38736 | 39002 ft | 541 kts | 170° |
| 2026-04-26 12:46 | 28.09827 | 53.41296 | 39003 ft | 542 kts | 170° |
| 2026-04-26 12:47 | 28.02632 | 53.43849 | 39004 ft | 542 kts | 170° |
| 2026-04-26 12:47 | 27.95456 | 53.46391 | 38995 ft | 542 kts | 170° |
| 2026-04-26 12:48 | 27.88252 | 53.48940 | 38983 ft | 542 kts | 170° |
| 2026-04-26 12:48 | 27.81043 | 53.51484 | 38977 ft | 542 kts | 170° |
| 2026-04-26 12:49 | 27.73834 | 53.54025 | 38969 ft | 543 kts | 170° |
| 2026-04-26 12:49 | 27.66636 | 53.56560 | 38960 ft | 543 kts | 170° |
| 2026-04-26 12:50 | 27.59401 | 53.59101 | 38954 ft | 544 kts | 170° |
| 2026-04-26 12:50 | 27.52170 | 53.61640 | 38948 ft | 544 kts | 170° |
| 2026-04-26 12:51 | 27.44940 | 53.64165 | 38945 ft | 544 kts | 170° |
| 2026-04-26 12:51 | 27.37728 | 53.66623 | 38939 ft | 544 kts | 170° |
| 2026-04-26 12:52 | 27.30483 | 53.69089 | 38934 ft | 545 kts | 170° |
| 2026-04-26 12:52 | 27.23206 | 53.71569 | 38933 ft | 545 kts | 170° |
| 2026-04-26 12:53 | 27.15939 | 53.74043 | 38918 ft | 546 kts | 170° |
| 2026-04-26 12:53 | 27.08722 | 53.76504 | 38908 ft | 532 kts | 170° |
| 2026-04-26 12:54 | 27.01715 | 53.78888 | 38904 ft | 525 kts | 170° |
| 2026-04-26 12:54 | 26.94701 | 53.81258 | 38891 ft | 528 kts | 170° |
| 2026-04-26 12:55 | 26.87690 | 53.83632 | 38886 ft | 528 kts | 170° |
| 2026-04-26 12:55 | 26.80644 | 53.86016 | 38878 ft | 528 kts | 170° |
| 2026-04-26 12:56 | 26.73625 | 53.88391 | 38604 ft | 523 kts | 170° |
| 2026-04-26 12:56 | 26.70148 | 53.89567 | 38346 ft | 522 kts | 170° |
| 2026-04-26 12:56 | 26.66676 | 53.90738 | 38078 ft | 522 kts | 170° |
| 2026-04-26 12:56 | 26.63193 | 53.91912 | 37805 ft | 522 kts | 170° |
| 2026-04-26 12:57 | 26.59698 | 53.93089 | 37540 ft | 523 kts | 170° |
| 2026-04-26 12:57 | 26.56227 | 53.94400 | 37261 ft | 529 kts | 164° |
| 2026-04-26 12:57 | 26.52891 | 53.96183 | 36667 ft | 536 kts | 156° |
| 2026-04-26 12:58 | 26.46835 | 54.01171 | 34877 ft | 554 kts | 143° |
| 2026-04-26 12:58 | 26.43938 | 54.04022 | 33858 ft | 559 kts | 143° |
| 2026-04-26 12:58 | 26.40998 | 54.06892 | 32640 ft | 559 kts | 143° |
| 2026-04-26 12:58 | 26.38079 | 54.09729 | 31658 ft | 552 kts | 143° |
| 2026-04-26 12:59 | 26.35217 | 54.12505 | 31136 ft | 534 kts | 143° |
| 2026-04-26 12:59 | 26.32475 | 54.15164 | 30879 ft | 513 kts | 144° |
| 2026-04-26 12:59 | 26.29765 | 54.17676 | 30253 ft | 499 kts | 147° |
| 2026-04-26 12:59 | 26.27048 | 54.20036 | 29288 ft | 493 kts | 147° |
| 2026-04-26 13:00 | 26.24375 | 54.22427 | 28285 ft | 490 kts | 145° |
| 2026-04-26 13:00 | 26.21800 | 54.24850 | 27666 ft | 478 kts | 144° |
| 2026-04-26 13:00 | 26.19314 | 54.27223 | 27211 ft | 464 kts | 144° |
| 2026-04-26 13:00 | 26.16879 | 54.29545 | 26530 ft | 455 kts | 144° |
| 2026-04-26 13:01 | 26.14496 | 54.31807 | 25903 ft | 446 kts | 145° |
| 2026-04-26 13:01 | 26.12151 | 54.34025 | 25268 ft | 438 kts | 145° |
| 2026-04-26 13:01 | 26.09877 | 54.36171 | 24652 ft | 430 kts | 145° |
| 2026-04-26 13:01 | 26.07615 | 54.38304 | 24024 ft | 423 kts | 145° |
| 2026-04-26 13:02 | 26.05388 | 54.40403 | 23389 ft | 416 kts | 145° |
| 2026-04-26 13:02 | 26.03197 | 54.42466 | 22725 ft | 409 kts | 144° |
| 2026-04-26 13:02 | 26.01047 | 54.44491 | 22121 ft | 400 kts | 144° |
| 2026-04-26 13:02 | 25.98942 | 54.46473 | 21529 ft | 393 kts | 144° |
| 2026-04-26 13:03 | 25.96876 | 54.48416 | 20897 ft | 389 kts | 144° |
| 2026-04-26 13:03 | 25.94757 | 54.50400 | 20184 ft | 404 kts | 144° |
| 2026-04-26 13:03 | 25.92594 | 54.52427 | 19582 ft | 407 kts | 143° |
| 2026-04-26 13:03 | 25.90517 | 54.54538 | 18999 ft | 405 kts | 137° |
| 2026-04-26 13:04 | 25.88600 | 54.56774 | 18449 ft | 402 kts | 137° |
| 2026-04-26 13:04 | 25.86670 | 54.59005 | 17838 ft | 398 kts | 137° |
| 2026-04-26 13:04 | 25.84761 | 54.61202 | 17189 ft | 394 kts | 137° |
| 2026-04-26 13:04 | 25.82865 | 54.63376 | 16574 ft | 391 kts | 137° |
| 2026-04-26 13:05 | 25.80972 | 54.65546 | 15961 ft | 389 kts | 136° |
| 2026-04-26 13:05 | 25.79093 | 54.67695 | 15363 ft | 386 kts | 137° |
| 2026-04-26 13:05 | 25.77175 | 54.69760 | 14771 ft | 382 kts | 139° |
| 2026-04-26 13:05 | 25.75238 | 54.71762 | 14181 ft | 379 kts | 139° |
| 2026-04-26 13:06 | 25.73313 | 54.73746 | 13605 ft | 377 kts | 139° |
| 2026-04-26 13:06 | 25.71420 | 54.75710 | 13228 ft | 364 kts | 139° |
| 2026-04-26 13:06 | 25.69624 | 54.77588 | 13024 ft | 345 kts | 139° |
| 2026-04-26 13:06 | 25.67930 | 54.79365 | 12845 ft | 327 kts | 139° |
| 2026-04-26 13:07 | 25.66319 | 54.81054 | 12668 ft | 309 kts | 139° |
| 2026-04-26 13:07 | 25.64803 | 54.82644 | 12290 ft | 302 kts | 139° |
| 2026-04-26 13:07 | 25.63300 | 54.84216 | 12036 ft | 293 kts | 139° |
| 2026-04-26 13:07 | 25.61840 | 54.85811 | 11740 ft | 295 kts | 132° |
| 2026-04-26 13:08 | 25.60693 | 54.87716 | 11584 ft | 299 kts | 117° |
| 2026-04-26 13:08 | 25.59888 | 54.89835 | 11498 ft | 299 kts | 113° |
| 2026-04-26 13:08 | 25.59079 | 54.91963 | 11416 ft | 299 kts | 114° |
| 2026-04-26 13:08 | 25.58254 | 54.94080 | 11308 ft | 299 kts | 114° |
| 2026-04-26 13:09 | 25.57428 | 54.96189 | 11166 ft | 298 kts | 114° |
| 2026-04-26 13:09 | 25.56620 | 54.98253 | 11005 ft | 297 kts | 114° |
| 2026-04-26 13:09 | 25.55785 | 55.00389 | 10829 ft | 296 kts | 114° |
| 2026-04-26 13:09 | 25.54967 | 55.02483 | 10640 ft | 297 kts | 114° |
| 2026-04-26 13:10 | 25.54061 | 55.04498 | 10430 ft | 296 kts | 121° |
| 2026-04-26 13:10 | 25.53022 | 55.06460 | 10230 ft | 295 kts | 121° |
| 2026-04-26 13:10 | 25.51999 | 55.08423 | 10021 ft | 294 kts | 120° |
| 2026-04-26 13:10 | 25.50981 | 55.10386 | 9809 ft | 293 kts | 120° |
| 2026-04-26 13:11 | 25.49969 | 55.12341 | 9612 ft | 291 kts | 120° |
| 2026-04-26 13:11 | 25.48958 | 55.14292 | 9378 ft | 291 kts | 120° |
| 2026-04-26 13:11 | 25.47951 | 55.16234 | 9141 ft | 290 kts | 120° |
| 2026-04-26 13:11 | 25.46940 | 55.18179 | 8933 ft | 290 kts | 120° |
| 2026-04-26 13:12 | 25.45882 | 55.20072 | 8705 ft | 290 kts | 128° |
| 2026-04-26 13:12 | 25.44559 | 55.21738 | 8490 ft | 288 kts | 134° |
| 2026-04-26 13:12 | 25.43224 | 55.23347 | 8276 ft | 288 kts | 133° |
| 2026-04-26 13:12 | 25.41888 | 55.24984 | 8067 ft | 287 kts | 133° |
| 2026-04-26 13:13 | 25.40565 | 55.26615 | 7995 ft | 284 kts | 133° |
| 2026-04-26 13:13 | 25.39245 | 55.28240 | 7996 ft | 285 kts | 133° |
| 2026-04-26 13:13 | 25.37917 | 55.29872 | 7998 ft | 285 kts | 133° |
| 2026-04-26 13:13 | 25.36590 | 55.31499 | 7999 ft | 285 kts | 134° |
| 2026-04-26 13:14 | 25.35099 | 55.32943 | 8000 ft | 283 kts | 147° |
| 2026-04-26 13:14 | 25.33392 | 55.34003 | 7990 ft | 280 kts | 155° |
| 2026-04-26 13:14 | 25.31673 | 55.34980 | 7957 ft | 277 kts | 154° |
| 2026-04-26 13:14 | 25.29989 | 55.35963 | 7908 ft | 269 kts | 154° |
| 2026-04-26 13:15 | 25.28361 | 55.36923 | 7775 ft | 261 kts | 154° |
| 2026-04-26 13:15 | 25.26771 | 55.37857 | 7505 ft | 262 kts | 154° |
| 2026-04-26 13:15 | 25.25144 | 55.38809 | 7232 ft | 262 kts | 154° |
| 2026-04-26 13:15 | 25.24070 | 55.39438 | 7058 ft | 262 kts | 154° |
| 2026-04-26 13:16 | 25.21919 | 55.40697 | 6707 ft | 261 kts | 154° |
| 2026-04-26 13:16 | 25.20338 | 55.41621 | 6461 ft | 260 kts | 154° |
| 2026-04-26 13:16 | 25.18736 | 55.42558 | 6210 ft | 260 kts | 154° |
| 2026-04-26 13:16 | 25.17138 | 55.43494 | 5956 ft | 259 kts | 154° |
| 2026-04-26 13:17 | 25.13977 | 55.45346 | 5476 ft | 255 kts | 154° |
| 2026-04-26 13:17 | 25.12413 | 55.46260 | 5222 ft | 254 kts | 153° |
| 2026-04-26 13:18 | 25.10026 | 55.49003 | 4669 ft | 254 kts | 120° |
| 2026-04-26 13:18 | 25.09127 | 55.50682 | 4396 ft | 254 kts | 121° |
| 2026-04-26 13:18 | 25.07294 | 55.53972 | 3944 ft | 250 kts | 121° |
| 2026-04-26 13:19 | 25.06387 | 55.55588 | 3787 ft | 246 kts | 121° |
| 2026-04-26 13:19 | 25.05487 | 55.57191 | 3654 ft | 248 kts | 121° |
| 2026-04-26 13:19 | 25.04902 | 55.58270 | 3555 ft | 244 kts | 114° |
| 2026-04-26 13:19 | 25.04626 | 55.60671 | 3365 ft | 234 kts | 72° |
| 2026-04-26 13:20 | 25.05385 | 55.62185 | 3229 ft | 222 kts | 39° |
| 2026-04-26 13:20 | 25.06211 | 55.62798 | 3134 ft | 214 kts | 18° |
| 2026-04-26 13:20 | 25.07631 | 55.62954 | 2985 ft | 203 kts | 346° |
| 2026-04-26 13:20 | 25.08896 | 55.62396 | 2760 ft | 187 kts | 335° |
| 2026-04-26 13:21 | 25.10051 | 55.61815 | 2526 ft | 179 kts | 335° |
| 2026-04-26 13:21 | 25.11162 | 55.61254 | 2293 ft | 174 kts | 335° |
| 2026-04-26 13:21 | 25.12334 | 55.60682 | 2154 ft | 188 kts | 335° |
| 2026-04-26 13:21 | 25.13366 | 55.60142 | 1975 ft | 172 kts | 332° |
| 2026-04-26 13:22 | 25.14276 | 55.59360 | 1730 ft | 176 kts | 304° |
| 2026-04-26 13:22 | 25.14640 | 55.58072 | 1513 ft | 172 kts | 282° |
| 2026-04-26 13:22 | 25.14843 | 55.56863 | 1531 ft | 152 kts | 284° |
| 2026-04-26 13:22 | 25.15162 | 55.55831 | 1483 ft | 136 kts | 299° |
| 2026-04-26 13:23 | 25.15613 | 55.54936 | 1514 ft | 131 kts | 297° |
| 2026-04-26 13:23 | 25.16019 | 55.54033 | 1639 ft | 131 kts | 295° |
| 2026-04-26 13:23 | 25.16420 | 55.53099 | 1886 ft | 139 kts | 294° |
| 2026-04-26 13:23 | 25.16776 | 55.52078 | 1998 ft | 146 kts | 296° |
| 2026-04-26 13:24 | 25.17209 | 55.51098 | 1991 ft | 140 kts | 301° |
| 2026-04-26 13:24 | 25.17697 | 55.50153 | 1998 ft | 142 kts | 302° |
| 2026-04-26 13:24 | 25.18209 | 55.49219 | 1987 ft | 142 kts | 303° |
| 2026-04-26 13:24 | 25.18710 | 55.48309 | 1813 ft | 136 kts | 302° |
| 2026-04-26 13:25 | 25.19200 | 55.47420 | 1648 ft | 134 kts | 302° |
| 2026-04-26 13:25 | 25.19682 | 55.46555 | 1475 ft | 134 kts | 301° |
| 2026-04-26 13:25 | 25.20165 | 55.45673 | 1322 ft | 134 kts | 301° |
| 2026-04-26 13:25 | 25.20657 | 55.44788 | 1146 ft | 135 kts | 301° |
| 2026-04-26 13:26 | 25.21148 | 55.43895 | 978 ft | 136 kts | 300° |
| 2026-04-26 13:26 | 25.21636 | 55.43003 | 812 ft | 134 kts | 300° |
| 2026-04-26 13:26 | 25.22103 | 55.42126 | 648 ft | 130 kts | 301° |
| 2026-04-26 13:26 | 25.22581 | 55.41295 | 479 ft | 130 kts | 302° |
| 2026-04-26 13:27 | 25.23058 | 55.40439 | 306 ft | 131 kts | 302° |
| 2026-04-26 13:27 | 25.23533 | 55.39584 | 125 ft | 131 kts | 302° |
| 2026-04-26 13:27 | 25.23966 | 55.38809 | 57 ft | 99 kts | 301° |
| 2026-04-26 13:27 | 25.24201 | 55.38386 | 55 ft | 37 kts | 301° |
| 2026-04-26 13:28 | 25.24318 | 55.38174 | 50 ft | 29 kts | 301° |
| 2026-04-26 13:28 | 25.24421 | 55.37988 | 46 ft | 32 kts | 301° |
| 2026-04-26 13:28 | 25.24550 | 55.37754 | 43 ft | 35 kts | 296° |
| 2026-04-26 13:28 | 25.24611 | 55.37521 | 40 ft | 29 kts | 274° |
| 2026-04-26 13:29 | 25.24613 | 55.37481 | 40 ft | 0 kts | 274° |
| 2026-04-26 13:29 | 25.24616 | 55.37421 | 39 ft | 15 kts | 273° |
| 2026-04-26 13:30 | 25.24623 | 55.37301 | 38 ft | 16 kts | 282° |
| 2026-04-26 13:30 | 25.24666 | 55.37188 | 38 ft | 16 kts | 301° |
| 2026-04-26 13:30 | 25.24724 | 55.37080 | 37 ft | 17 kts | 301° |
| 2026-04-26 13:30 | 25.24787 | 55.36965 | 35 ft | 18 kts | 301° |
| 2026-04-26 13:31 | 25.24844 | 55.36844 | 33 ft | 18 kts | 287° |
| 2026-04-26 13:31 | 25.24877 | 55.36710 | 31 ft | 18 kts | 287° |
| 2026-04-26 13:31 | 25.24916 | 55.36617 | 30 ft | 12 kts | 300° |
| 2026-04-26 13:31 | 25.24960 | 55.36531 | 29 ft | 14 kts | 296° |
| 2026-04-26 13:32 | 25.24982 | 55.36427 | 28 ft | 15 kts | 278° |
| 2026-04-26 13:32 | 25.24965 | 55.36359 | 27 ft | 9 kts | 216° |
| 2026-04-26 13:32 | 25.24905 | 55.36315 | 27 ft | 11 kts | 212° |
| 2026-04-26 13:32 | 25.24891 | 55.36306 | 27 ft | 0 kts | 212° |